Time;durP1;ratioP1;P1;durP2;ratioP2;P2;SDS_P1;SDS_P2;PMS_P1;PMS_P2;Temp;Humidity;BMP_temperature;BMP_pressure;BME280_temperature;BME280_humidity;BME280_pressure;Samples;Min_cycle;Max_cycle;Signal;HPM_P1;HPM_P2
2023/09/22 00:01:29;;;;;;;0.10;0.10;;;;;;;;;;4808113;29;20495;-87
2023/09/22 00:03:56;;;;;;;0.10;0.10;;;;;;;;;;4808096;29;20054;-87
2023/09/22 00:06:22;;;;;;;0.10;0.10;;;;;;;;;;4824504;29;20050;-87
2023/09/22 00:08:48;;;;;;;0.10;0.10;;;;;;;;;;4823276;29;20066;-88
2023/09/22 00:11:15;;;;;;;0.10;0.10;;;;;;;;;;4807971;29;20069;-89
2023/09/22 00:13:41;;;;;;;0.20;0.20;;;;;;;;;;4823161;29;20103;-88
2023/09/22 00:16:09;;;;;;;0.10;0.10;;;;;;;;;;4807668;29;20046;-88
2023/09/22 00:18:35;;;;;;;0.10;0.10;;;;;;;;;;4808211;29;20506;-88
2023/09/22 00:21:04;;;;;;;0.10;0.10;;;;;;;;;;4807975;29;20054;-88
2023/09/22 00:23:30;;;;;;;0.10;0.10;;;;;;;;;;4807624;29;20053;-88
2023/09/22 00:25:56;;;;;;;0.10;0.10;;;;;;;;;;4807551;29;20055;-88
2023/09/22 00:28:22;;;;;;;0.10;0.10;;;;;;;;;;4822919;29;20050;-88
2023/09/22 00:30:49;;;;;;;0.10;0.10;;;;;;;;;;4807905;29;20176;-88
2023/09/22 00:33:15;;;;;;;0.10;0.10;;;;;;;;;;4807591;29;20391;-88
2023/09/22 00:35:42;;;;;;;0.10;0.10;;;;;;;;;;4807555;29;20125;-88
2023/09/22 00:38:08;;;;;;;0.10;0.10;;;;;;;;;;4807643;29;20052;-88
2023/09/22 00:40:34;;;;;;;0.10;0.10;;;;;;;;;;4807729;29;20129;-88
2023/09/22 00:43:09;;;;;;;0.10;0.10;;;;;;;;;;4807510;29;20095;-89
2023/09/22 00:45:35;;;;;;;0.10;0.10;;;;;;;;;;4823050;29;20340;-89
2023/09/22 00:48:01;;;;;;;0.10;0.10;;;;;;;;;;4807327;29;20049;-89
2023/09/22 00:50:28;;;;;;;0.10;0.10;;;;;;;;;;4807712;29;20478;-89
2023/09/22 00:52:54;;;;;;;0.55;0.35;;;;;;;;;;4807683;29;20111;-90
2023/09/22 00:55:20;;;;;;;0.10;0.10;;;;;;;;;;4807313;29;20038;-89
2023/09/22 00:57:46;;;;;;;0.20;0.20;;;;;;;;;;4807379;29;20042;-89
2023/09/22 01:00:12;;;;;;;0.17;0.17;;;;;;;;;;4807326;29;20050;-89
2023/09/22 01:02:38;;;;;;;2.05;0.40;;;;;;;;;;4822593;29;20050;-89
2023/09/22 01:05:07;;;;;;;0.38;0.20;;;;;;;;;;4807137;29;20242;-88
2023/09/22 01:07:33;;;;;;;0.20;0.20;;;;;;;;;;4806947;29;20301;-90
2023/09/22 01:10:18;;;;;;;0.10;0.10;;;;;;;;;;4822347;29;20081;-89
2023/09/22 01:12:44;;;;;;;0.10;0.10;;;;;;;;;;4807315;29;20082;-90
2023/09/22 01:15:10;;;;;;;0.10;0.10;;;;;;;;;;4807134;29;20099;-88
2023/09/22 01:17:36;;;;;;;0.10;0.10;;;;;;;;;;4807360;29;20069;-88
2023/09/22 01:20:03;;;;;;;0.10;0.10;;;;;;;;;;4806983;29;20494;-88
2023/09/22 01:22:29;;;;;;;0.10;0.10;;;;;;;;;;4807182;29;20479;-88
2023/09/22 01:24:56;;;;;;;0.10;0.10;;;;;;;;;;4807261;29;20123;-88
2023/09/22 01:27:22;;;;;;;0.10;0.10;;;;;;;;;;4807072;29;20054;-87
2023/09/22 01:29:48;;;;;;;0.10;0.10;;;;;;;;;;4822106;29;20404;-88
2023/09/22 01:32:15;;;;;;;0.10;0.10;;;;;;;;;;4807059;29;20089;-88
2023/09/22 01:34:41;;;;;;;0.10;0.10;;;;;;;;;;4806761;29;20050;-88
2023/09/22 01:37:07;;;;;;;0.10;0.10;;;;;;;;;;4806858;29;20419;-89
2023/09/22 01:39:37;;;;;;;0.10;0.10;;;;;;;;;;4807175;29;20129;-89
2023/09/22 01:42:03;;;;;;;0.20;0.20;;;;;;;;;;4807106;29;20551;-89
2023/09/22 01:44:29;;;;;;;0.10;0.10;;;;;;;;;;4821938;29;20141;-88
2023/09/22 01:46:55;;;;;;;0.10;0.10;;;;;;;;;;4822142;29;20137;-89
2023/09/22 01:49:21;;;;;;;0.10;0.10;;;;;;;;;;4806983;29;20057;-88
2023/09/22 01:51:47;;;;;;;0.10;0.10;;;;;;;;;;4821650;29;20047;-88
2023/09/22 01:54:13;;;;;;;0.15;0.15;;;;;;;;;;4821827;29;20047;-88
2023/09/22 01:56:39;;;;;;;0.10;0.10;;;;;;;;;;4806711;29;20483;-88
2023/09/22 01:59:05;;;;;;;0.10;0.10;;;;;;;;;;4806965;29;20049;-88
2023/09/22 02:01:31;;;;;;;0.10;0.10;;;;;;;;;;4806808;29;20050;-88
2023/09/22 02:03:57;;;;;;;0.10;0.10;;;;;;;;;;4806778;29;20050;-88
2023/09/22 02:06:23;;;;;;;0.10;0.10;;;;;;;;;;4806466;29;20046;-88
2023/09/22 02:08:49;;;;;;;0.10;0.10;;;;;;;;;;4806845;29;20095;-88
2023/09/22 02:11:16;;;;;;;0.20;0.20;;;;;;;;;;4806535;29;20057;-88
2023/09/22 02:13:42;;;;;;;0.10;0.10;;;;;;;;;;4821592;29;20125;-88
2023/09/22 02:16:08;;;;;;;0.30;0.30;;;;;;;;;;4806597;29;20103;-88
2023/09/22 02:18:35;;;;;;;0.10;0.10;;;;;;;;;;4806888;29;20491;-88
2023/09/22 02:21:01;;;;;;;0.10;0.10;;;;;;;;;;4824917;29;20098;-88
2023/09/22 02:23:27;;;;;;;0.20;0.20;;;;;;;;;;4810245;29;20376;-88
2023/09/22 02:25:53;;;;;;;0.10;0.10;;;;;;;;;;4809561;29;20124;-88
2023/09/22 02:28:19;;;;;;;0.10;0.10;;;;;;;;;;4810232;29;20501;-88
2023/09/22 02:30:45;;;;;;;0.10;0.10;;;;;;;;;;4825034;29;20062;-88
2023/09/22 02:33:11;;;;;;;0.10;0.10;;;;;;;;;;4824861;29;20129;-88
2023/09/22 02:35:41;;;;;;;0.10;0.10;;;;;;;;;;4809288;29;20053;-88
2023/09/22 02:38:07;;;;;;;0.10;0.10;;;;;;;;;;4824447;29;20470;-88
2023/09/22 02:40:33;;;;;;;0.10;0.10;;;;;;;;;;4809569;29;20129;-88
2023/09/22 02:42:59;;;;;;;0.20;0.20;;;;;;;;;;4809815;29;20399;-88
2023/09/22 02:45:25;;;;;;;0.10;0.10;;;;;;;;;;4809428;29;20129;-88
2023/09/22 02:47:53;;;;;;;0.30;0.30;;;;;;;;;;4824327;29;20104;-88
2023/09/22 02:50:19;;;;;;;0.10;0.10;;;;;;;;;;4809575;29;20372;-88
2023/09/22 02:52:45;;;;;;;0.10;0.10;;;;;;;;;;4809623;29;20095;-88
2023/09/22 02:55:13;;;;;;;0.10;0.10;;;;;;;;;;4809392;29;20069;-88
2023/09/22 02:57:39;;;;;;;0.13;0.13;;;;;;;;;;4824255;29;20046;-88
2023/09/22 03:00:14;;;;;;;0.10;0.10;;;;;;;;;;4809296;29;20038;-88
2023/09/22 03:02:40;;;;;;;0.10;0.10;;;;;;;;;;4810272;29;20051;-88
2023/09/22 03:05:08;;;;;;;0.45;0.45;;;;;;;;;;4809090;29;20061;-88
2023/09/22 03:07:34;;;;;;;0.10;0.10;;;;;;;;;;4809499;29;20137;-88
2023/09/22 03:10:00;;;;;;;0.28;0.28;;;;;;;;;;4824179;29;20130;-88
2023/09/22 03:12:25;;;;;;;0.35;0.35;;;;;;;;;;4809169;29;20069;-88
2023/09/22 03:14:52;;;;;;;0.10;0.10;;;;;;;;;;4808844;29;20454;-88
2023/09/22 03:17:18;;;;;;;0.10;0.10;;;;;;;;;;4808987;29;20046;-88
2023/09/22 03:19:44;;;;;;;0.10;0.10;;;;;;;;;;4808958;29;20046;-88
2023/09/22 03:22:10;;;;;;;0.10;0.10;;;;;;;;;;4823846;29;20072;-89
2023/09/22 03:24:36;;;;;;;0.30;0.30;;;;;;;;;;4823749;29;20502;-89
2023/09/22 03:27:02;;;;;;;0.50;0.50;;;;;;;;;;4808731;29;20126;-88
2023/09/22 03:29:28;;;;;;;0.20;0.20;;;;;;;;;;4809041;29;20053;-88
2023/09/22 03:31:54;;;;;;;0.10;0.10;;;;;;;;;;4822866;29;20339;-87
2023/09/22 03:34:21;;;;;;;0.10;0.10;;;;;;;;;;4808731;29;20099;-88
2023/09/22 03:36:49;;;;;;;0.15;0.15;;;;;;;;;;4823794;29;20050;-88
2023/09/22 03:39:15;;;;;;;0.10;0.10;;;;;;;;;;4809019;29;20054;-89
2023/09/22 03:41:42;;;;;;;0.10;0.10;;;;;;;;;;4808621;29;20134;-90
2023/09/22 03:44:08;;;;;;;0.10;0.10;;;;;;;;;;4808926;29;20061;-89
2023/09/22 03:46:34;;;;;;;0.10;0.10;;;;;;;;;;4808814;29;20050;-89
2023/09/22 03:49:00;;;;;;;0.10;0.10;;;;;;;;;;4808860;29;20210;-89
2023/09/22 03:51:25;;;;;;;0.30;0.30;;;;;;;;;;4808463;29;20079;-89
2023/09/22 03:53:52;;;;;;;0.10;0.10;;;;;;;;;;4823380;29;20513;-89
2023/09/22 03:56:18;;;;;;;0.10;0.10;;;;;;;;;;4823455;29;20077;-90
2023/09/22 03:58:45;;;;;;;0.10;0.10;;;;;;;;;;4823697;29;20054;-89
2023/09/22 04:01:11;;;;;;;0.13;0.13;;;;;;;;;;4808534;29;20380;-89
2023/09/22 04:03:37;;;;;;;0.10;0.10;;;;;;;;;;4808397;29;20057;-89
2023/09/22 04:06:04;;;;;;;0.10;0.10;;;;;;;;;;4808351;29;20525;-89
2023/09/22 04:08:30;;;;;;;0.10;0.10;;;;;;;;;;4808537;29;20078;-89
2023/09/22 04:10:56;;;;;;;0.20;0.20;;;;;;;;;;4808463;29;20088;-90
2023/09/22 04:13:24;;;;;;;0.10;0.10;;;;;;;;;;4808178;29;20053;-90
2023/09/22 04:16:00;;;;;;;0.10;0.10;;;;;;;;;;4823178;29;20050;-90
2023/09/22 04:18:29;;;;;;;0.10;0.10;;;;;;;;;;4808180;29;20043;-90
2023/09/22 04:21:01;;;;;;;0.10;0.10;;;;;;;;;;4808610;29;20499;-90
2023/09/22 04:23:27;;;;;;;0.20;0.20;;;;;;;;;;4808857;29;20120;-90
2023/09/22 04:25:54;;;;;;;0.10;0.10;;;;;;;;;;4807763;29;20054;-90
2023/09/22 04:28:23;;;;;;;0.10;0.10;;;;;;;;;;4808534;29;20054;-90
2023/09/22 04:30:49;;;;;;;0.55;0.30;;;;;;;;;;4808477;29;20081;-91
2023/09/22 04:33:15;;;;;;;0.22;0.22;;;;;;;;;;4808340;29;20038;-90
2023/09/22 04:35:41;;;;;;;0.20;0.20;;;;;;;;;;4808159;29;20095;-91
2023/09/22 04:38:08;;;;;;;0.30;0.30;;;;;;;;;;4823266;29;20134;-90
2023/09/22 04:40:36;;;;;;;0.10;0.10;;;;;;;;;;4808184;29;20521;-90
2023/09/22 04:43:07;;;;;;;0.20;0.20;;;;;;;;;;4807947;29;20403;-90
2023/09/22 04:45:33;;;;;;;0.10;0.10;;;;;;;;;;4808143;29;20081;-90
2023/09/22 04:47:58;;;;;;;0.15;0.15;;;;;;;;;;4807643;29;20510;-90
2023/09/22 04:50:24;;;;;;;0.10;0.10;;;;;;;;;;4807712;29;20054;-89
2023/09/22 04:52:50;;;;;;;0.10;0.10;;;;;;;;;;4822970;29;20134;-90
2023/09/22 04:55:17;;;;;;;0.10;0.10;;;;;;;;;;4822651;29;20053;-88
2023/09/22 04:57:43;;;;;;;0.22;0.22;;;;;;;;;;4807355;29;20121;-88
2023/09/22 05:00:16;;;;;;;0.10;0.10;;;;;;;;;;4807452;29;20046;-89
2023/09/22 05:02:43;;;;;;;0.10;0.10;;;;;;;;;;4808078;29;20057;-88
2023/09/22 05:05:09;;;;;;;0.10;0.10;;;;;;;;;;4807454;29;20046;-88
2023/09/22 05:07:35;;;;;;;0.13;0.13;;;;;;;;;;4807387;29;20042;-89
2023/09/22 05:10:02;;;;;;;0.10;0.10;;;;;;;;;;4806985;29;20055;-89
2023/09/22 05:12:30;;;;;;;0.10;0.10;;;;;;;;;;4807300;29;20061;-89
2023/09/22 05:14:56;;;;;;;0.10;0.10;;;;;;;;;;4822597;29;20210;-89
2023/09/22 05:17:22;;;;;;;0.20;0.20;;;;;;;;;;4807228;29;20063;-89
2023/09/22 05:19:48;;;;;;;0.20;0.20;;;;;;;;;;4807137;29;20044;-89
2023/09/22 05:22:14;;;;;;;0.10;0.10;;;;;;;;;;4822324;29;20054;-89
2023/09/22 05:24:40;;;;;;;0.10;0.10;;;;;;;;;;4807392;29;20056;-89
2023/09/22 05:27:07;;;;;;;0.20;0.20;;;;;;;;;;4822100;29;20062;-89
2023/09/22 05:29:33;;;;;;;0.10;0.10;;;;;;;;;;4807147;29;20479;-89
2023/09/22 05:31:59;;;;;;;0.10;0.10;;;;;;;;;;4806900;29;20103;-89
2023/09/22 05:34:25;;;;;;;0.10;0.10;;;;;;;;;;4806981;29;20038;-90
2023/09/22 05:36:51;;;;;;;0.10;0.10;;;;;;;;;;4807421;29;20035;-90
2023/09/22 05:39:17;;;;;;;0.20;0.20;;;;;;;;;;4822185;29;20098;-89
2023/09/22 05:41:47;;;;;;;0.20;0.20;;;;;;;;;;4806932;29;20043;-89
2023/09/22 05:44:13;;;;;;;0.10;0.10;;;;;;;;;;4807072;29;20187;-92
2023/09/22 05:46:39;;;;;;;0.10;0.10;;;;;;;;;;4807801;29;20566;-88
2023/09/22 05:49:06;;;;;;;0.10;0.10;;;;;;;;;;4806719;29;20260;-87
2023/09/22 05:51:33;;;;;;;0.55;0.20;;;;;;;;;;4806480;29;20054;-87
2023/09/22 05:54:00;;;;;;;0.10;0.10;;;;;;;;;;4808003;29;20495;-87
2023/09/22 05:56:26;;;;;;;0.10;0.10;;;;;;;;;;4810561;29;20446;-88
2023/09/22 05:58:52;;;;;;;0.10;0.10;;;;;;;;;;4810645;29;20047;-87
2023/09/22 06:01:17;;;;;;;0.10;0.10;;;;;;;;;;4810143;29;20478;-87
2023/09/22 06:03:44;;;;;;;0.10;0.10;;;;;;;;;;4810074;29;20068;-88
2023/09/22 06:06:11;;;;;;;0.20;0.20;;;;;;;;;;4825073;29;20054;-86
2023/09/22 06:08:37;;;;;;;0.10;0.10;;;;;;;;;;4810122;29;20055;-87
2023/09/22 06:11:06;;;;;;;0.30;0.30;;;;;;;;;;4809945;29;20046;-87
2023/09/22 06:13:33;;;;;;;0.10;0.10;;;;;;;;;;4809951;29;20061;-86
2023/09/22 06:15:59;;;;;;;0.10;0.10;;;;;;;;;;4824886;29;20049;-85
2023/09/22 06:18:25;;;;;;;0.30;0.30;;;;;;;;;;4824750;29;20124;-86
2023/09/22 06:20:58;;;;;;;0.10;0.10;;;;;;;;;;4810147;29;20054;-86
2023/09/22 06:23:24;;;;;;;0.20;0.20;;;;;;;;;;4809949;29;20597;-86
2023/09/22 06:25:51;;;;;;;0.47;0.38;;;;;;;;;;4809806;29;20415;-87
2023/09/22 06:28:18;;;;;;;0.10;0.10;;;;;;;;;;4824722;29;20088;-86
2023/09/22 06:30:46;;;;;;;0.32;0.32;;;;;;;;;;4810165;29;20114;-86
2023/09/22 06:33:12;;;;;;;0.10;0.10;;;;;;;;;;4809926;29;20525;-88
2023/09/22 06:35:39;;;;;;;0.10;0.10;;;;;;;;;;4809581;29;20087;-89
2023/09/22 06:38:06;;;;;;;0.10;0.10;;;;;;;;;;4809683;29;20111;-88
2023/09/22 06:40:35;;;;;;;0.10;0.10;;;;;;;;;;4824582;29;20050;-88
2023/09/22 06:43:01;;;;;;;0.10;0.10;;;;;;;;;;4808565;29;20050;-87
2023/09/22 06:45:28;;;;;;;0.10;0.10;;;;;;;;;;4824314;29;20405;-87
2023/09/22 06:47:56;;;;;;;0.10;0.10;;;;;;;;;;4809714;29;20475;-88
2023/09/22 06:50:24;;;;;;;0.10;0.10;;;;;;;;;;4809671;29;20051;-87
2023/09/22 06:52:50;;;;;;;0.10;0.10;;;;;;;;;;4824283;29;20074;-87
2023/09/22 06:55:16;;;;;;;0.35;0.22;;;;;;;;;;4809444;29;20074;-87
2023/09/22 06:57:42;;;;;;;0.10;0.10;;;;;;;;;;4809420;29;20051;-87
2023/09/22 07:00:14;;;;;;;0.10;0.10;;;;;;;;;;4809385;29;20449;-88
2023/09/22 07:02:40;;;;;;;0.10;0.10;;;;;;;;;;4791123;29;20049;-86
2023/09/22 07:05:07;;;;;;;0.10;0.10;;;;;;;;;;4797027;29;20129;-86
2023/09/22 07:07:33;;;;;;;0.10;0.10;;;;;;;;;;4808777;29;20183;-86
2023/09/22 07:09:59;;;;;;;0.10;0.10;;;;;;;;;;4806144;29;20195;-87
2023/09/22 07:12:24;;;;;;;0.10;0.10;;;;;;;;;;4791039;29;20512;-87
2023/09/22 07:14:50;;;;;;;0.10;0.10;;;;;;;;;;4775819;29;20564;-87
2023/09/22 07:17:17;;;;;;;0.10;0.10;;;;;;;;;;4805955;29;20038;-87
2023/09/22 07:19:43;;;;;;;0.10;0.10;;;;;;;;;;4806176;29;20039;-86
2023/09/22 07:22:09;;;;;;;0.10;0.10;;;;;;;;;;4790923;29;20130;-87
2023/09/22 07:24:35;;;;;;;0.55;0.20;;;;;;;;;;4790769;29;20086;-87
2023/09/22 07:27:01;;;;;;;0.10;0.10;;;;;;;;;;4805501;29;20192;-87
2023/09/22 07:29:27;;;;;;;0.10;0.10;;;;;;;;;;4790670;29;20400;-86
2023/09/22 07:31:53;;;;;;;0.10;0.10;;;;;;;;;;4805566;29;20051;-87
2023/09/22 07:34:21;;;;;;;0.10;0.10;;;;;;;;;;4790620;29;20084;-87
2023/09/22 07:36:47;;;;;;;0.10;0.10;;;;;;;;;;4790973;29;20043;-87
2023/09/22 07:39:13;;;;;;;0.10;0.10;;;;;;;;;;4775877;29;20054;-88
2023/09/22 07:41:39;;;;;;;0.10;0.10;;;;;;;;;;4790929;29;20130;-88
2023/09/22 07:44:06;;;;;;;0.10;0.10;;;;;;;;;;4790329;29;20158;-87
2023/09/22 07:46:32;;;;;;;0.10;0.10;;;;;;;;;;4775762;29;20043;-89
2023/09/22 07:48:58;;;;;;;0.10;0.10;;;;;;;;;;4775700;29;20061;-90
2023/09/22 07:51:24;;;;;;;0.10;0.10;;;;;;;;;;4790238;29;20051;-88
2023/09/22 07:53:50;;;;;;;0.10;0.10;;;;;;;;;;4805309;29;20043;-87
2023/09/22 07:56:18;;;;;;;0.28;0.28;;;;;;;;;;4805626;29;20065;-88
2023/09/22 07:58:44;;;;;;;0.10;0.10;;;;;;;;;;4775969;29;20050;-86
2023/09/22 08:01:15;;;;;;;0.10;0.10;;;;;;;;;;4805210;29;20055;-86
2023/09/22 08:03:43;;;;;;;0.10;0.10;;;;;;;;;;4775636;29;20055;-88
2023/09/22 08:06:10;;;;;;;0.10;0.10;;;;;;;;;;4805421;29;20113;-86
2023/09/22 08:08:36;;;;;;;0.10;0.10;;;;;;;;;;4790465;29;20046;-88
2023/09/22 08:11:04;;;;;;;0.10;0.10;;;;;;;;;;4775027;29;20130;-88
2023/09/22 08:13:30;;;;;;;0.13;0.13;;;;;;;;;;4775294;29;20184;-88
2023/09/22 08:15:56;;;;;;;0.15;0.15;;;;;;;;;;4790015;29;20126;-87
2023/09/22 08:18:24;;;;;;;0.10;0.10;;;;;;;;;;4789674;29;20053;-88
2023/09/22 08:20:50;;;;;;;0.10;0.10;;;;;;;;;;4804958;29;20443;-88
2023/09/22 08:23:16;;;;;;;0.10;0.10;;;;;;;;;;4789951;29;20103;-88
2023/09/22 08:25:43;;;;;;;0.20;0.20;;;;;;;;;;4789510;29;20067;-88
2023/09/22 08:28:13;;;;;;;0.10;0.10;;;;;;;;;;4790081;29;20068;-88
2023/09/22 08:30:39;;;;;;;0.10;0.10;;;;;;;;;;4775018;29;20047;-88
2023/09/22 08:33:07;;;;;;;0.10;0.10;;;;;;;;;;4789804;29;20049;-89
2023/09/22 08:35:33;;;;;;;0.10;0.10;;;;;;;;;;4789749;29;20046;-89
2023/09/22 08:38:03;;;;;;;0.10;0.10;;;;;;;;;;4789901;29;20047;-88
2023/09/22 08:40:29;;;;;;;0.10;0.10;;;;;;;;;;4789734;29;20129;-88
2023/09/22 08:42:56;;;;;;;0.10;0.10;;;;;;;;;;4774613;29;20473;-88
2023/09/22 08:45:22;;;;;;;0.10;0.10;;;;;;;;;;4789507;29;20089;-88
2023/09/22 08:47:48;;;;;;;0.10;0.10;;;;;;;;;;4789714;29;20556;-88
2023/09/22 08:50:14;;;;;;;0.17;0.17;;;;;;;;;;4789336;29;20051;-89
2023/09/22 08:52:41;;;;;;;0.10;0.10;;;;;;;;;;4789182;29;20043;-89
2023/09/22 08:55:08;;;;;;;0.10;0.10;;;;;;;;;;4789532;29;20078;-88
2023/09/22 08:57:34;;;;;;;0.10;0.10;;;;;;;;;;4789804;29;20403;-89
2023/09/22 09:00:00;;;;;;;0.10;0.10;;;;;;;;;;4789340;29;20411;-88
2023/09/22 09:02:27;;;;;;;0.10;0.10;;;;;;;;;;4774292;29;20099;-89
2023/09/22 09:04:53;;;;;;;0.10;0.10;;;;;;;;;;4774487;29;20043;-89
2023/09/22 09:07:19;;;;;;;0.10;0.10;;;;;;;;;;4789646;29;20082;-88
2023/09/22 09:09:47;;;;;;;0.10;0.10;;;;;;;;;;4774536;29;20046;-89
2023/09/22 09:12:14;;;;;;;0.10;0.10;;;;;;;;;;4774466;29;20411;-88
2023/09/22 09:14:40;;;;;;;0.10;0.10;;;;;;;;;;4789140;29;20078;-89
2023/09/22 09:17:19;;;;;;;0.10;0.10;;;;;;;;;;4774265;29;20130;-89
2023/09/22 09:19:55;;;;;;;0.10;0.10;;;;;;;;;;4789069;29;20051;-89
2023/09/22 09:22:21;;;;;;;0.10;0.10;;;;;;;;;;4789228;29;20058;-88
2023/09/22 09:24:46;;;;;;;0.20;0.20;;;;;;;;;;4789148;29;20038;-89
2023/09/22 09:27:19;;;;;;;0.10;0.10;;;;;;;;;;4788908;29;20070;-88
2023/09/22 09:29:53;;;;;;;0.10;0.10;;;;;;;;;;4788848;29;20103;-89
2023/09/22 09:32:24;;;;;;;0.10;0.10;;;;;;;;;;4789354;29;20049;-88
2023/09/22 09:34:51;;;;;;;0.10;0.10;;;;;;;;;;4789097;29;20039;-90
2023/09/22 09:37:17;;;;;;;0.10;0.10;;;;;;;;;;4774119;29;20034;-89
2023/09/22 09:39:44;;;;;;;0.10;0.10;;;;;;;;;;4788904;29;20051;-89
2023/09/22 09:42:10;;;;;;;0.10;0.10;;;;;;;;;;4788899;29;20451;-89
2023/09/22 09:44:37;;;;;;;0.10;0.10;;;;;;;;;;4774073;29;20047;-89
2023/09/22 09:47:03;;;;;;;0.10;0.10;;;;;;;;;;4774016;29;20051;-89
2023/09/22 09:49:29;;;;;;;0.10;0.10;;;;;;;;;;4773931;29;20049;-89
2023/09/22 09:51:55;;;;;;;0.10;0.10;;;;;;;;;;4774067;29;20054;-89
2023/09/22 09:54:21;;;;;;;0.10;0.10;;;;;;;;;;4788951;29;20092;-89
2023/09/22 09:56:49;;;;;;;0.20;0.20;;;;;;;;;;4788790;29;20043;-89
2023/09/22 09:59:15;;;;;;;0.15;0.15;;;;;;;;;;4788678;29;20093;-89
2023/09/22 10:01:41;;;;;;;0.10;0.10;;;;;;;;;;4788884;29;20053;-89
2023/09/22 10:04:07;;;;;;;0.20;0.20;;;;;;;;;;4788676;29;20047;-89
2023/09/22 10:06:33;;;;;;;0.10;0.10;;;;;;;;;;4773855;29;20051;-89
2023/09/22 10:08:59;;;;;;;0.10;0.10;;;;;;;;;;4803608;29;20089;-90
2023/09/22 10:11:25;;;;;;;0.20;0.20;;;;;;;;;;4788772;29;20099;-89
2023/09/22 10:13:53;;;;;;;0.10;0.10;;;;;;;;;;4788486;29;20521;-90
2023/09/22 10:16:29;;;;;;;0.10;0.10;;;;;;;;;;4788783;29;20054;-89
2023/09/22 10:18:56;;;;;;;0.10;0.10;;;;;;;;;;4788725;29;20507;-88
2023/09/22 10:21:31;;;;;;;0.10;0.10;;;;;;;;;;4803773;29;20063;-89
2023/09/22 10:24:16;;;;;;;0.10;0.10;;;;;;;;;;4803475;29;20058;-90
2023/09/22 10:26:55;;;;;;;0.20;0.20;;;;;;;;;;4803189;29;20062;-90
2023/09/22 10:29:34;;;;;;;0.10;0.10;;;;;;;;;;4803535;29;20055;-89
2023/09/22 10:32:19;;;;;;;0.10;0.10;;;;;;;;;;4803490;29;20107;-90
2023/09/22 10:34:47;;;;;;;0.10;0.10;;;;;;;;;;4803168;29;20055;-89
2023/09/22 10:37:13;;;;;;;0.10;0.10;;;;;;;;;;4788668;29;20039;-89
2023/09/22 10:39:57;;;;;;;0.10;0.10;;;;;;;;;;4774053;29;20042;-90
2023/09/22 10:42:24;;;;;;;0.10;0.10;;;;;;;;;;4791850;29;20058;-89
2023/09/22 10:45:00;;;;;;;0.10;0.10;;;;;;;;;;4777033;29;20051;-90
2023/09/22 10:47:36;;;;;;;0.10;0.10;;;;;;;;;;4792100;29;20078;-89
2023/09/22 10:50:19;;;;;;;0.10;0.10;;;;;;;;;;4777006;29;20078;-90
2023/09/22 10:53:03;;;;;;;0.10;0.10;;;;;;;;;;4776893;29;20113;-90
2023/09/22 10:55:36;;;;;;;0.20;0.20;;;;;;;;;;4806215;29;20523;-89
2023/09/22 10:58:05;;;;;;;0.10;0.10;;;;;;;;;;4776828;29;20047;-90
2023/09/22 11:00:40;;;;;;;0.10;0.10;;;;;;;;;;4806409;29;20185;-89
2023/09/22 11:03:14;;;;;;;0.20;0.20;;;;;;;;;;4792487;29;20503;-90
2023/09/22 11:05:41;;;;;;;0.10;0.10;;;;;;;;;;4776644;29;20042;-90
2023/09/22 11:08:14;;;;;;;0.20;0.20;;;;;;;;;;4791252;29;20142;-90
2023/09/22 11:10:43;;;;;;;0.20;0.20;;;;;;;;;;4791139;29;20135;-90
2023/09/22 11:13:09;;;;;;;0.17;0.17;;;;;;;;;;4791568;29;20049;-90
2023/09/22 11:15:46;;;;;;;0.20;0.20;;;;;;;;;;4790981;29;20043;-91
2023/09/22 11:18:18;;;;;;;0.10;0.10;;;;;;;;;;4791242;29;20042;-90
2023/09/22 11:20:44;;;;;;;0.10;0.10;;;;;;;;;;4791091;29;20047;-90
2023/09/22 11:23:10;;;;;;;0.10;0.10;;;;;;;;;;4776069;29;20053;-90
2023/09/22 11:25:36;;;;;;;0.20;0.20;;;;;;;;;;4775980;29;20159;-90
2023/09/22 11:28:03;;;;;;;0.10;0.10;;;;;;;;;;4791104;29;20082;-90
2023/09/22 11:30:29;;;;;;;0.10;0.10;;;;;;;;;;4805985;29;20046;-91
2023/09/22 11:32:57;;;;;;;0.10;0.10;;;;;;;;;;4805877;29;20054;-90
2023/09/22 11:35:33;;;;;;;0.10;0.10;;;;;;;;;;4776101;29;20476;-90
2023/09/22 11:38:03;;;;;;;0.10;0.10;;;;;;;;;;4790993;29;20050;-89
2023/09/22 11:40:41;;;;;;;0.20;0.20;;;;;;;;;;4776375;29;20047;-90
2023/09/22 11:43:07;;;;;;;0.20;0.20;;;;;;;;;;4791061;29;20054;-89
2023/09/22 11:45:33;;;;;;;0.10;0.10;;;;;;;;;;4790475;29;20579;-90
2023/09/22 11:48:03;;;;;;;0.10;0.10;;;;;;;;;;4790690;29;20054;-91
2023/09/22 11:50:30;;;;;;;0.10;0.10;;;;;;;;;;4790658;29;20137;-90
2023/09/22 11:53:14;;;;;;;0.10;0.10;;;;;;;;;;4775158;29;20046;-90
2023/09/22 11:55:41;;;;;;;0.20;0.20;;;;;;;;;;4790209;29;20129;-90
2023/09/22 11:58:08;;;;;;;0.10;0.10;;;;;;;;;;4790622;29;20050;-90
2023/09/22 12:00:34;;;;;;;0.10;0.10;;;;;;;;;;4790522;29;20535;-90
2023/09/22 12:03:00;;;;;;;0.20;0.20;;;;;;;;;;4805348;29;20050;-90
2023/09/22 12:05:26;;;;;;;0.20;0.20;;;;;;;;;;4790088;29;20500;-90
2023/09/22 12:07:51;;;;;;;0.10;0.10;;;;;;;;;;4805199;29;20043;-91
2023/09/22 12:10:18;;;;;;;0.10;0.10;;;;;;;;;;4775201;29;20510;-90
2023/09/22 12:12:44;;;;;;;0.10;0.10;;;;;;;;;;4790274;29;20051;-90
2023/09/22 12:15:10;;;;;;;0.10;0.10;;;;;;;;;;4790254;29;20065;-90
2023/09/22 12:17:36;;;;;;;0.10;0.10;;;;;;;;;;4790248;29;20495;-90
2023/09/22 12:20:02;;;;;;;0.10;0.10;;;;;;;;;;4790422;29;20108;-89
2023/09/22 12:22:28;;;;;;;0.10;0.10;;;;;;;;;;4789913;29;20538;-89
2023/09/22 12:24:54;;;;;;;0.20;0.20;;;;;;;;;;4789918;29;20134;-91
2023/09/22 12:27:20;;;;;;;0.10;0.10;;;;;;;;;;4789828;29;20066;-90
2023/09/22 12:29:46;;;;;;;0.10;0.10;;;;;;;;;;4790078;29;20436;-90
2023/09/22 12:32:12;;;;;;;0.10;0.10;;;;;;;;;;4789790;29;20051;-90
2023/09/22 12:34:39;;;;;;;0.20;0.20;;;;;;;;;;4774956;29;20400;-89
2023/09/22 12:37:05;;;;;;;0.20;0.20;;;;;;;;;;4775071;29;20047;-89
2023/09/22 12:39:31;;;;;;;0.10;0.10;;;;;;;;;;4804754;29;20053;-90
2023/09/22 12:41:57;;;;;;;0.10;0.10;;;;;;;;;;4774765;29;20042;-90
2023/09/22 12:44:23;;;;;;;0.10;0.10;;;;;;;;;;4789691;29;20051;-90
2023/09/22 12:46:50;;;;;;;0.20;0.20;;;;;;;;;;4789626;29;20503;-90
2023/09/22 12:49:16;;;;;;;0.10;0.10;;;;;;;;;;4789754;29;20062;-90
2023/09/22 12:51:42;;;;;;;0.10;0.10;;;;;;;;;;4774583;29;20051;-91
2023/09/22 12:54:08;;;;;;;0.10;0.10;;;;;;;;;;4774627;29;20375;-90
2023/09/22 12:56:36;;;;;;;0.10;0.10;;;;;;;;;;4790012;29;20046;-90
2023/09/22 12:59:02;;;;;;;0.28;0.25;;;;;;;;;;4789812;29;20526;-90
2023/09/22 13:01:28;;;;;;;0.30;0.25;;;;;;;;;;4789484;29;20111;-90
2023/09/22 13:03:54;;;;;;;0.10;0.10;;;;;;;;;;4773652;29;20050;-90
2023/09/22 13:06:20;;;;;;;0.10;0.10;;;;;;;;;;4789329;29;20054;-90
2023/09/22 13:08:46;;;;;;;0.10;0.10;;;;;;;;;;4774316;29;20059;-90
2023/09/22 13:11:16;;;;;;;0.17;0.17;;;;;;;;;;4774448;29;20463;-90
2023/09/22 13:13:42;;;;;;;0.10;0.10;;;;;;;;;;4789376;29;20077;-90
2023/09/22 13:16:09;;;;;;;0.10;0.10;;;;;;;;;;4804038;29;20460;-90
2023/09/22 13:18:35;;;;;;;0.20;0.20;;;;;;;;;;4789394;29;20050;-89
2023/09/22 13:21:01;;;;;;;0.10;0.10;;;;;;;;;;4789194;29;20042;-90
2023/09/22 13:23:27;;;;;;;0.10;0.10;;;;;;;;;;4774391;29;20134;-90
2023/09/22 13:25:54;;;;;;;0.10;0.10;;;;;;;;;;4788816;29;20085;-90
2023/09/22 13:28:20;;;;;;;0.10;0.10;;;;;;;;;;4789412;29;20571;-91
2023/09/22 13:30:52;;;;;;;0.10;0.10;;;;;;;;;;4774207;29;20046;-91
2023/09/22 13:33:20;;;;;;;0.10;0.10;;;;;;;;;;4789844;29;20108;-90
2023/09/22 13:35:48;;;;;;;0.10;0.10;;;;;;;;;;4774614;29;20043;-90
2023/09/22 13:38:15;;;;;;;0.10;0.10;;;;;;;;;;4774678;29;20046;-90
2023/09/22 13:40:44;;;;;;;0.10;0.10;;;;;;;;;;4789262;29;20059;-90
2023/09/22 13:43:11;;;;;;;0.10;0.10;;;;;;;;;;4774589;29;20085;-90
2023/09/22 13:45:39;;;;;;;0.10;0.10;;;;;;;;;;4789144;29;20487;-90
2023/09/22 13:48:05;;;;;;;0.10;0.10;;;;;;;;;;4774015;29;20109;-90
2023/09/22 13:50:32;;;;;;;0.10;0.10;;;;;;;;;;4789023;29;20070;-90
2023/09/22 13:52:58;;;;;;;0.10;0.10;;;;;;;;;;4789002;29;20043;-90
2023/09/22 13:55:24;;;;;;;0.10;0.10;;;;;;;;;;4789255;29;20129;-89
2023/09/22 13:57:50;;;;;;;0.10;0.10;;;;;;;;;;4774195;29;20131;-90
2023/09/22 14:00:16;;;;;;;0.10;0.10;;;;;;;;;;4788881;29;20042;-89
2023/09/22 14:02:43;;;;;;;0.10;0.10;;;;;;;;;;4788903;29;20042;-89
2023/09/22 14:05:09;;;;;;;0.10;0.10;;;;;;;;;;4773917;29;20043;-90
2023/09/22 14:07:37;;;;;;;0.10;0.10;;;;;;;;;;4774247;29;20038;-91
2023/09/22 14:10:03;;;;;;;0.10;0.10;;;;;;;;;;4773803;29;20054;-90
2023/09/22 14:12:29;;;;;;;0.10;0.10;;;;;;;;;;4788594;29;20054;-90
2023/09/22 14:14:55;;;;;;;0.10;0.10;;;;;;;;;;4774708;29;20051;-90
2023/09/22 14:17:21;;;;;;;0.10;0.10;;;;;;;;;;4792364;29;20046;-89
2023/09/22 14:19:47;;;;;;;0.10;0.10;;;;;;;;;;4792222;29;20053;-90
2023/09/22 14:22:13;;;;;;;0.10;0.10;;;;;;;;;;4792364;29;20046;-90
2023/09/22 14:24:41;;;;;;;0.10;0.10;;;;;;;;;;4792474;29;20086;-90
2023/09/22 14:27:07;;;;;;;0.10;0.10;;;;;;;;;;4792049;29;20526;-90
2023/09/22 14:29:33;;;;;;;0.10;0.10;;;;;;;;;;4777209;29;20407;-90
2023/09/22 14:31:59;;;;;;;0.10;0.10;;;;;;;;;;4792127;29;20047;-90
2023/09/22 14:34:25;;;;;;;0.10;0.10;;;;;;;;;;4791968;29;20559;-90
2023/09/22 14:36:51;;;;;;;0.10;0.10;;;;;;;;;;4791820;29;20045;-90
2023/09/22 14:39:17;;;;;;;0.15;0.15;;;;;;;;;;4791990;29;20074;-90
2023/09/22 14:41:43;;;;;;;0.10;0.10;;;;;;;;;;4776922;29;20082;-90
2023/09/22 14:44:09;;;;;;;0.10;0.10;;;;;;;;;;4776913;29;20533;-89